Larnaca, Cyprus
Current Conditions -  °F | °C
As of 10:30 PM on Monday 22 Dec 2014 (Local Time) from LCLK Reporting Station
Few Clouds Few Clouds  
Wind Chill: 54°   Ceiling: Unl
Heat Index: 54°   Visibility: 6mi
Dew Point: 37°   Wind: 12mph
Humidity: 54%   Direction: 340°NNW
Pressure: 30.09"   Gusts: NA
Location:  34.92°N, 33.63°E
Report Text: LCLK 221930Z 34010KT 9999 FEW025 12/03 Q1019 NOSIG
Loading
Personal Weather Stations






























Interactive Weather Map New forecast layout! Learn more

10-Day Weather Forecast

Advertisements
Track Severe Weather on mobile